createdAt,value
2019-04-27T00:00:16.520Z,1007.41
2019-04-27T00:01:15.507Z,1007.44
2019-04-27T00:02:18.203Z,1007.41
2019-04-27T00:03:16.484Z,1007.47
2019-04-27T00:04:19.018Z,1007.53
2019-04-27T00:05:15.467Z,1007.46
2019-04-27T00:06:15.453Z,1007.46
2019-04-27T00:07:16.967Z,1007.47
2019-04-27T00:08:15.435Z,1007.36
2019-04-27T00:09:15.420Z,1007.33
2019-04-27T00:10:15.413Z,1007.41
2019-04-27T00:11:15.399Z,1007.19
2019-04-27T00:12:16.468Z,1007.23
2019-04-27T00:13:16.377Z,1007.21
2019-04-27T00:14:18.138Z,1007.09
2019-04-27T00:15:15.357Z,1007.13
2019-04-27T00:16:15.347Z,1007.16
2019-04-27T00:17:15.341Z,1007.18
2019-04-27T00:18:16.926Z,1007.19
2019-04-27T00:19:15.314Z,1007.24
2019-04-27T00:20:15.308Z,1007.31
2019-04-27T00:21:15.318Z,1007.34
2019-04-27T00:22:15.281Z,1007.32
2019-04-27T00:23:15.272Z,1007.22
2019-04-27T00:24:15.261Z,1007.25
2019-04-27T00:25:15.248Z,1007.21
2019-04-27T00:26:15.238Z,1007.20
2019-04-27T00:27:15.227Z,1007.18
2019-04-27T00:28:15.217Z,1007.18
2019-04-27T00:29:15.208Z,1007.21
2019-04-27T00:30:15.195Z,1007.27
2019-04-27T00:31:15.186Z,1007.29
2019-04-27T00:32:15.175Z,1007.22
2019-04-27T00:33:15.162Z,1007.28
2019-04-27T00:34:15.187Z,1007.23
2019-04-27T00:35:15.142Z,1007.25
2019-04-27T00:36:15.130Z,1007.26
2019-04-27T00:37:15.120Z,1007.32
2019-04-27T00:38:15.121Z,1007.33
2019-04-27T00:39:15.098Z,1007.35
2019-04-27T00:40:15.089Z,1007.37
2019-04-27T00:41:15.077Z,1007.33
2019-04-27T00:42:15.067Z,1007.20
2019-04-27T00:43:15.058Z,1007.24
2019-04-27T00:44:15.045Z,1007.25
2019-04-27T00:45:15.040Z,1007.21
2019-04-27T00:46:15.026Z,1007.19
2019-04-27T00:47:15.014Z,1007.12
2019-04-27T00:48:15.002Z,1007.10
2019-04-27T00:49:14.991Z,1007.06
2019-04-27T00:50:14.984Z,1007.10
2019-04-27T00:51:14.970Z,1007.10
2019-04-27T00:52:14.960Z,1007.10
2019-04-27T00:53:14.955Z,1007.09
2019-04-27T00:54:14.939Z,1007.10
2019-04-27T00:55:14.929Z,1007.09
2019-04-27T00:56:14.919Z,1007.08
2019-04-27T00:57:14.908Z,1007.08
2019-04-27T00:58:14.899Z,1007.06
2019-04-27T00:59:14.884Z,1007.08
2019-04-27T01:00:14.874Z,1007.07
2019-04-27T01:01:15.048Z,1007.03
2019-04-27T01:02:14.855Z,1007.07
2019-04-27T01:03:14.843Z,1007.03
2019-04-27T01:04:14.831Z,1007.05
2019-04-27T01:05:14.821Z,1007.12
2019-04-27T01:06:14.987Z,1007.11
2019-04-27T01:07:14.804Z,1007.14
2019-04-27T01:08:14.788Z,1007.17
2019-04-27T01:09:14.778Z,1007.21
2019-04-27T01:10:14.766Z,1007.14
2019-04-27T01:11:14.758Z,1007.17
2019-04-27T01:12:14.747Z,1007.22
2019-04-27T01:13:14.734Z,1007.22
2019-04-27T01:14:14.722Z,1007.28
2019-04-27T01:15:14.713Z,1007.26
2019-04-27T01:16:17.451Z,1007.34
2019-04-27T01:17:15.705Z,1007.35
2019-04-27T01:18:15.508Z,1007.46
2019-04-27T01:19:14.671Z,1007.42
2019-04-27T01:20:14.660Z,1007.55
2019-04-27T01:21:14.649Z,1007.49
2019-04-27T01:22:14.642Z,1007.49
2019-04-27T01:23:14.629Z,1007.58
2019-04-27T01:24:14.618Z,1007.60
2019-04-27T01:25:14.608Z,1007.64
2019-04-27T01:26:14.596Z,1007.65
2019-04-27T01:27:14.587Z,1007.70
2019-04-27T01:28:14.577Z,1007.68
2019-04-27T01:29:14.562Z,1007.71
2019-04-27T01:30:14.554Z,1007.66
2019-04-27T01:31:14.541Z,1007.69
2019-04-27T01:32:14.531Z,1007.70
2019-04-27T01:33:14.530Z,1007.74
2019-04-27T01:34:14.509Z,1007.73
2019-04-27T01:35:14.501Z,1007.74
2019-04-27T01:36:14.487Z,1007.72
2019-04-27T01:37:14.478Z,1007.73
2019-04-27T01:38:14.468Z,1007.69
2019-04-27T01:39:14.457Z,1007.76
2019-04-27T01:40:14.445Z,1007.69
2019-04-27T01:41:14.434Z,1007.73
2019-04-27T01:42:14.424Z,1007.70
2019-04-27T01:43:14.415Z,1007.74
2019-04-27T01:44:14.403Z,1007.75
2019-04-27T01:45:14.392Z,1007.73
2019-04-27T01:46:14.381Z,1007.78
2019-04-27T01:47:14.371Z,1007.78
2019-04-27T01:48:23.036Z,1007.81
2019-04-27T01:49:15.348Z,1007.81
2019-04-27T01:50:14.337Z,1007.82
2019-04-27T01:51:14.327Z,1007.82
2019-04-27T01:52:14.321Z,1007.83
2019-04-27T01:53:14.306Z,1007.86
2019-04-27T01:54:14.297Z,1007.88
2019-04-27T01:55:14.285Z,1007.85
2019-04-27T01:56:14.273Z,1007.85
2019-04-27T01:57:14.265Z,1007.91
2019-04-27T01:58:14.252Z,1007.86
2019-04-27T01:59:14.241Z,1007.96
2019-04-27T02:00:14.230Z,1007.95
2019-04-27T02:01:14.221Z,1008.10
2019-04-27T02:02:14.210Z,1008.03
2019-04-27T02:03:14.202Z,1008.03
2019-04-27T02:04:14.190Z,1008.06
2019-04-27T02:05:14.181Z,1008.06
2019-04-27T02:06:14.168Z,1008.10
2019-04-27T02:07:14.157Z,1008.04
2019-04-27T02:08:14.145Z,1008.01
2019-04-27T02:09:14.133Z,1007.98
2019-04-27T02:10:14.125Z,1008.01
2019-04-27T02:11:14.143Z,1007.95
2019-04-27T02:12:14.102Z,1008.02
2019-04-27T02:13:14.091Z,1007.94
2019-04-27T02:14:14.083Z,1008.00
2019-04-27T02:15:14.069Z,1008.02
2019-04-27T02:16:14.059Z,1007.95
2019-04-27T02:17:14.049Z,1007.96
2019-04-27T02:18:14.035Z,1007.88
2019-04-27T02:19:14.028Z,1007.81
2019-04-27T02:20:14.015Z,1007.81
2019-04-27T02:21:14.007Z,1007.78
2019-04-27T02:22:13.992Z,1007.77
2019-04-27T02:23:13.981Z,1007.85
2019-04-27T02:24:13.971Z,1007.85
2019-04-27T02:25:13.962Z,1007.82
2019-04-27T02:26:13.951Z,1007.84
2019-04-27T02:27:13.941Z,1007.88
2019-04-27T02:28:13.931Z,1007.81
2019-04-27T02:29:13.919Z,1007.82
2019-04-27T02:30:13.908Z,1007.79
2019-04-27T02:31:13.899Z,1007.88
2019-04-27T02:32:13.896Z,1007.85
2019-04-27T02:33:13.877Z,1007.85
2019-04-27T02:34:13.871Z,1007.79
2019-04-27T02:35:13.856Z,1007.80
2019-04-27T02:36:15.164Z,1007.79
2019-04-27T02:37:13.836Z,1007.79
2019-04-27T02:38:13.822Z,1007.74
2019-04-27T02:39:13.814Z,1007.80
2019-04-27T02:40:13.800Z,1007.71
2019-04-27T02:41:13.789Z,1007.73
2019-04-27T02:42:13.779Z,1007.69
2019-04-27T02:43:13.769Z,1007.70
2019-04-27T02:44:13.758Z,1007.72
2019-04-27T02:45:13.747Z,1007.69
2019-04-27T02:46:13.742Z,1007.74
2019-04-27T02:47:13.727Z,1007.75
2019-04-27T02:48:13.715Z,1007.80
2019-04-27T02:49:13.708Z,1007.78
2019-04-27T02:50:13.697Z,1007.82
2019-04-27T02:51:13.683Z,1007.90
2019-04-27T02:52:13.672Z,1007.87
2019-04-27T02:53:13.660Z,1007.90
2019-04-27T02:54:13.651Z,1007.86
2019-04-27T02:55:13.697Z,1007.87
2019-04-27T02:56:13.633Z,1007.87
2019-04-27T02:57:13.620Z,1007.82
2019-04-27T02:58:13.606Z,1007.84
2019-04-27T02:59:13.594Z,1007.79
2019-04-27T03:00:13.586Z,1007.86
2019-04-27T03:01:13.573Z,1007.93
2019-04-27T03:02:13.567Z,1007.88
2019-04-27T03:03:13.558Z,1007.92
2019-04-27T03:04:13.546Z,1007.88
2019-04-27T03:05:13.532Z,1007.90
2019-04-27T03:06:13.521Z,1007.95
2019-04-27T03:07:13.510Z,1007.93
2019-04-27T03:08:13.497Z,1007.91
2019-04-27T03:09:13.487Z,1008.01
2019-04-27T03:10:13.478Z,1008.11
2019-04-27T03:11:13.467Z,1008.11
2019-04-27T03:12:13.456Z,1008.13
2019-04-27T03:13:13.453Z,1008.13
2019-04-27T03:14:28.319Z,1008.17
2019-04-27T03:15:14.425Z,1008.17
2019-04-27T03:16:13.534Z,1008.20
2019-04-27T03:17:13.407Z,1008.19
2019-04-27T03:18:13.389Z,1008.16
2019-04-27T03:19:18.077Z,1008.28
2019-04-27T03:20:14.370Z,1008.23
2019-04-27T03:21:13.449Z,1008.24
2019-04-27T03:22:13.350Z,1008.25
2019-04-27T03:23:13.343Z,1008.27
2019-04-27T03:24:13.327Z,1008.26
2019-04-27T03:25:15.334Z,1008.29
2019-04-27T03:26:13.321Z,1008.23
2019-04-27T03:27:13.294Z,1008.26
2019-04-27T03:28:13.286Z,1008.27
2019-04-27T03:29:13.273Z,1008.24
2019-04-27T03:30:13.264Z,1008.28
2019-04-27T03:31:14.091Z,1008.23
2019-04-27T03:32:13.403Z,1008.29
2019-04-27T03:33:13.231Z,1008.25
2019-04-27T03:34:16.422Z,1008.24
2019-04-27T03:35:13.679Z,1008.30
2019-04-27T03:36:13.447Z,1008.28
2019-04-27T03:37:13.192Z,1008.27
2019-04-27T03:38:13.176Z,1008.24
2019-04-27T03:39:13.163Z,1008.24
2019-04-27T03:40:13.153Z,1008.20
2019-04-27T03:41:13.150Z,1008.23
2019-04-27T03:42:13.132Z,1008.24
2019-04-27T03:43:13.122Z,1008.29
2019-04-27T03:44:13.110Z,1008.21
2019-04-27T03:45:13.098Z,1008.11
2019-04-27T03:46:13.103Z,1008.12
2019-04-27T03:47:13.080Z,1008.13
2019-04-27T03:48:13.072Z,1008.15
2019-04-27T03:49:27.762Z,1008.08
2019-04-27T03:50:14.053Z,1008.14
2019-04-27T03:51:13.036Z,1008.18
2019-04-27T03:52:13.023Z,1008.18
2019-04-27T03:53:13.016Z,1008.22
2019-04-27T03:54:13.002Z,1008.23
2019-04-27T03:55:12.995Z,1008.24
2019-04-27T03:56:12.984Z,1008.24
2019-04-27T03:57:12.970Z,1008.19
2019-04-27T03:58:12.962Z,1008.19
2019-04-27T03:59:12.966Z,1008.19
2019-04-27T04:00:12.957Z,1008.21
2019-04-27T04:01:12.933Z,1008.17
2019-04-27T04:02:12.916Z,1008.11
2019-04-27T04:03:12.905Z,1008.10
2019-04-27T04:04:12.898Z,1008.04
2019-04-27T04:05:12.886Z,1008.02
2019-04-27T04:06:12.876Z,1008.07
2019-04-27T04:07:12.865Z,1008.08
2019-04-27T04:08:12.856Z,1008.08
2019-04-27T04:09:12.852Z,1008.14
2019-04-27T04:10:12.832Z,1008.11
2019-04-27T04:11:12.822Z,1008.12
2019-04-27T04:12:12.819Z,1008.16
2019-04-27T04:13:12.797Z,1008.09
2019-04-27T04:14:12.791Z,1008.15
2019-04-27T04:15:12.788Z,1008.11
2019-04-27T04:16:12.769Z,1008.15
2019-04-27T04:17:12.943Z,1008.22
2019-04-27T04:18:12.749Z,1008.28
2019-04-27T04:19:12.737Z,1008.24
2019-04-27T04:20:12.722Z,1008.31
2019-04-27T04:21:12.713Z,1008.28
2019-04-27T04:22:12.703Z,1008.23
2019-04-27T04:23:12.692Z,1008.24
2019-04-27T04:24:12.682Z,1008.19
2019-04-27T04:25:12.670Z,1008.13
2019-04-27T04:26:12.659Z,1008.18
2019-04-27T04:27:12.652Z,1008.16
2019-04-27T04:28:12.636Z,1008.26
2019-04-27T04:29:12.627Z,1008.19
2019-04-27T04:30:12.755Z,1008.23
2019-04-27T04:31:13.795Z,1008.25
2019-04-27T04:32:12.593Z,1008.26
2019-04-27T04:33:12.583Z,1008.26
2019-04-27T04:34:12.574Z,1008.20
2019-04-27T04:35:12.564Z,1008.27
2019-04-27T04:36:12.556Z,1008.27
2019-04-27T04:37:12.540Z,1008.27
2019-04-27T04:38:12.544Z,1008.27
2019-04-27T04:39:12.877Z,1008.27
2019-04-27T04:40:12.507Z,1008.23
2019-04-27T04:41:12.500Z,1008.24
2019-04-27T04:42:12.486Z,1008.22
2019-04-27T04:43:12.478Z,1008.22
2019-04-27T04:44:12.676Z,1008.28
2019-04-27T04:45:12.455Z,1008.27
2019-04-27T04:46:13.314Z,1008.36
2019-04-27T04:47:12.434Z,1008.34
2019-04-27T04:48:12.423Z,1008.31
2019-04-27T04:49:12.412Z,1008.37
2019-04-27T04:50:15.185Z,1008.34
2019-04-27T04:51:12.392Z,1008.36
2019-04-27T04:52:12.392Z,1008.34
2019-04-27T04:53:13.021Z,1008.33
2019-04-27T04:54:12.369Z,1008.33
2019-04-27T04:55:12.348Z,1008.26
2019-04-27T04:56:12.337Z,1008.26
2019-04-27T04:57:12.331Z,1008.25
2019-04-27T04:58:12.315Z,1008.29
2019-04-27T04:59:12.303Z,1008.33
2019-04-27T05:00:12.300Z,1008.33
2019-04-27T05:01:12.285Z,1008.36
2019-04-27T05:02:12.272Z,1008.37
2019-04-27T05:03:12.260Z,1008.37
2019-04-27T05:04:12.251Z,1008.36
2019-04-27T05:05:12.239Z,1008.34
2019-04-27T05:06:12.228Z,1008.29
2019-04-27T05:07:12.216Z,1008.35
2019-04-27T05:08:12.207Z,1008.34
2019-04-27T05:09:12.196Z,1008.34
2019-04-27T05:10:12.183Z,1008.39
2019-04-27T05:11:12.182Z,1008.36
2019-04-27T05:12:12.163Z,1008.34
2019-04-27T05:13:12.154Z,1008.35
2019-04-27T05:14:12.142Z,1008.33
2019-04-27T05:15:12.128Z,1008.34
2019-04-27T05:16:12.119Z,1008.25
2019-04-27T05:17:12.110Z,1008.34
2019-04-27T05:18:12.099Z,1008.31
2019-04-27T05:19:12.089Z,1008.31
2019-04-27T05:20:22.310Z,1008.37
2019-04-27T05:21:13.070Z,1008.37
2019-04-27T05:22:12.058Z,1008.34
2019-04-27T05:23:12.044Z,1008.43
2019-04-27T05:24:12.037Z,1008.39
2019-04-27T05:25:12.024Z,1008.40
2019-04-27T05:26:12.010Z,1008.35
2019-04-27T05:27:12.005Z,1008.39
2019-04-27T05:28:11.992Z,1008.41
2019-04-27T05:29:11.979Z,1008.40
2019-04-27T05:30:11.970Z,1008.44
2019-04-27T05:31:11.961Z,1008.50
2019-04-27T05:32:11.948Z,1008.48
2019-04-27T05:33:11.937Z,1008.45
2019-04-27T05:34:11.930Z,1008.52
2019-04-27T05:35:11.914Z,1008.51
2019-04-27T05:36:11.905Z,1008.51
2019-04-27T05:37:11.893Z,1008.56
2019-04-27T05:38:13.483Z,1008.51
2019-04-27T05:39:13.327Z,1008.57
2019-04-27T05:40:11.861Z,1008.58
2019-04-27T05:41:11.850Z,1008.50
2019-04-27T05:42:16.931Z,1008.54
2019-04-27T05:43:12.828Z,1008.52
2019-04-27T05:44:13.041Z,1008.48
2019-04-27T05:45:15.392Z,1008.44
2019-04-27T05:46:12.799Z,1008.47
2019-04-27T05:47:13.124Z,1008.49
2019-04-27T05:48:11.776Z,1008.47
2019-04-27T05:49:11.765Z,1008.45
2019-04-27T05:50:13.340Z,1008.54
2019-04-27T05:51:12.740Z,1008.50
2019-04-27T05:52:14.621Z,1008.54
2019-04-27T05:53:11.723Z,1008.56
2019-04-27T05:54:11.711Z,1008.55
2019-04-27T05:55:11.698Z,1008.56
2019-04-27T05:56:11.689Z,1008.53
2019-04-27T05:57:11.679Z,1008.56
2019-04-27T05:58:11.667Z,1008.57
2019-04-27T05:59:14.602Z,1008.58
2019-04-27T06:00:11.648Z,1008.58
2019-04-27T06:01:11.636Z,1008.61
2019-04-27T06:02:11.631Z,1008.60
2019-04-27T06:03:11.616Z,1008.62
2019-04-27T06:04:11.603Z,1008.61
2019-04-27T06:05:11.591Z,1008.59
2019-04-27T06:06:11.582Z,1008.64
2019-04-27T06:07:11.569Z,1008.63
2019-04-27T06:08:11.561Z,1008.59
2019-04-27T06:09:11.547Z,1008.57
2019-04-27T06:10:11.537Z,1008.62
2019-04-27T06:11:11.528Z,1008.65
2019-04-27T06:12:11.521Z,1008.69
2019-04-27T06:13:11.508Z,1008.59
2019-04-27T06:14:11.500Z,1008.58
2019-04-27T06:15:11.490Z,1008.58
2019-04-27T06:16:11.473Z,1008.62
2019-04-27T06:17:11.465Z,1008.59
2019-04-27T06:18:11.451Z,1008.61
2019-04-27T06:19:11.439Z,1008.60
2019-04-27T06:20:11.427Z,1008.59
2019-04-27T06:21:11.418Z,1008.61
2019-04-27T06:22:11.407Z,1008.59
2019-04-27T06:23:11.395Z,1008.53
2019-04-27T06:24:11.385Z,1008.52
2019-04-27T06:25:12.048Z,1008.50
2019-04-27T06:26:11.792Z,1008.55
2019-04-27T06:27:11.352Z,1008.59
2019-04-27T06:28:11.342Z,1008.61
2019-04-27T06:29:11.330Z,1008.56
2019-04-27T06:30:11.321Z,1008.54
2019-04-27T06:31:11.314Z,1008.56
2019-04-27T06:32:11.303Z,1008.55
2019-04-27T06:33:11.287Z,1008.53
2019-04-27T06:34:11.280Z,1008.50
2019-04-27T06:35:12.451Z,1008.50
2019-04-27T06:36:11.256Z,1008.47
2019-04-27T06:37:11.244Z,1008.53
2019-04-27T06:38:11.600Z,1008.52
2019-04-27T06:39:11.222Z,1008.51
2019-04-27T06:40:11.217Z,1008.62
2019-04-27T06:41:11.229Z,1008.63
2019-04-27T06:42:18.150Z,1008.64
2019-04-27T06:43:12.184Z,1008.71
2019-04-27T06:44:11.556Z,1008.67
2019-04-27T06:45:11.160Z,1008.62
2019-04-27T06:46:11.150Z,1008.66
2019-04-27T06:47:11.135Z,1008.69
2019-04-27T06:48:11.129Z,1008.65
2019-04-27T06:49:11.378Z,1008.63
2019-04-27T06:50:11.104Z,1008.61
2019-04-27T06:51:11.095Z,1008.63
2019-04-27T06:52:11.082Z,1008.64
2019-04-27T06:53:11.075Z,1008.69
2019-04-27T06:54:11.061Z,1008.67
2019-04-27T06:55:11.053Z,1008.72
2019-04-27T06:56:11.046Z,1008.70
2019-04-27T06:57:11.030Z,1008.72
2019-04-27T06:58:11.028Z,1008.66
2019-04-27T06:59:11.008Z,1008.70
2019-04-27T07:00:10.995Z,1008.67
2019-04-27T07:01:11.203Z,1008.63
2019-04-27T07:02:10.977Z,1008.63
2019-04-27T07:03:10.966Z,1008.65
2019-04-27T07:04:11.092Z,1008.58
2019-04-27T07:05:10.944Z,1008.68
2019-04-27T07:06:10.938Z,1008.68
2019-04-27T07:07:10.923Z,1008.82
2019-04-27T07:08:10.911Z,1008.82
2019-04-27T07:09:10.905Z,1008.90
2019-04-27T07:10:10.898Z,1008.86
2019-04-27T07:11:11.534Z,1008.84
2019-04-27T07:12:10.869Z,1008.94
2019-04-27T07:13:10.857Z,1008.89
2019-04-27T07:14:11.592Z,1008.86
2019-04-27T07:15:10.840Z,1008.87
2019-04-27T07:16:10.825Z,1008.84
2019-04-27T07:17:10.819Z,1008.80
2019-04-27T07:18:10.803Z,1008.77
2019-04-27T07:19:10.800Z,1008.79
2019-04-27T07:20:10.787Z,1008.70
2019-04-27T07:21:18.855Z,1008.73
2019-04-27T07:22:11.854Z,1008.68
2019-04-27T07:23:10.749Z,1008.72
2019-04-27T07:24:10.739Z,1008.71
2019-04-27T07:25:10.728Z,1008.66
2019-04-27T07:26:10.717Z,1008.76
2019-04-27T07:27:10.705Z,1008.76
2019-04-27T07:28:10.696Z,1008.76
2019-04-27T07:29:10.686Z,1008.83
2019-04-27T07:30:11.934Z,1008.83
2019-04-27T07:31:10.674Z,1008.84
2019-04-27T07:32:10.673Z,1008.85
2019-04-27T07:33:10.643Z,1008.86
2019-04-27T07:34:10.634Z,1008.85
2019-04-27T07:35:10.619Z,1008.76
2019-04-27T07:36:10.609Z,1008.80
2019-04-27T07:37:11.188Z,1008.81
2019-04-27T07:38:10.588Z,1008.81
2019-04-27T07:39:11.588Z,1008.81
2019-04-27T07:40:10.567Z,1008.80
2019-04-27T07:41:10.556Z,1008.85
2019-04-27T07:42:10.546Z,1008.84
2019-04-27T07:43:10.534Z,1008.82
2019-04-27T07:44:10.525Z,1008.78
2019-04-27T07:45:11.317Z,1008.83
2019-04-27T07:46:10.503Z,1008.78
2019-04-27T07:47:10.494Z,1008.79
2019-04-27T07:48:10.479Z,1008.75
2019-04-27T07:49:10.471Z,1008.75
2019-04-27T07:50:10.460Z,1008.82
2019-04-27T07:51:10.448Z,1008.74
2019-04-27T07:52:10.436Z,1008.74
2019-04-27T07:53:10.427Z,1008.69
2019-04-27T07:54:10.419Z,1008.74
2019-04-27T07:55:10.407Z,1008.66
2019-04-27T07:56:10.816Z,1008.61
2019-04-27T07:57:10.383Z,1008.73
2019-04-27T07:58:10.373Z,1008.69
2019-04-27T07:59:10.363Z,1008.64
2019-04-27T08:00:10.352Z,1008.68
2019-04-27T08:01:10.344Z,1008.68
2019-04-27T08:02:11.035Z,1008.67
2019-04-27T08:03:10.322Z,1008.68
2019-04-27T08:04:10.311Z,1008.66
2019-04-27T08:05:10.299Z,1008.64
2019-04-27T08:06:10.867Z,1008.75
2019-04-27T08:07:10.282Z,1008.74
2019-04-27T08:08:10.266Z,1008.76
2019-04-27T08:09:10.257Z,1008.72
2019-04-27T08:10:10.246Z,1008.76
2019-04-27T08:11:11.330Z,1008.67
2019-04-27T08:12:10.885Z,1008.66
2019-04-27T08:13:10.219Z,1008.68
2019-04-27T08:14:10.204Z,1008.67
2019-04-27T08:15:10.191Z,1008.65
2019-04-27T08:16:10.181Z,1008.72
2019-04-27T08:17:10.197Z,1008.70
2019-04-27T08:18:10.158Z,1008.66
2019-04-27T08:19:10.149Z,1008.69
2019-04-27T08:20:10.138Z,1008.70
2019-04-27T08:21:10.128Z,1008.69
2019-04-27T08:22:10.118Z,1008.70
2019-04-27T08:23:10.106Z,1008.69
2019-04-27T08:24:11.213Z,1008.74
2019-04-27T08:25:10.085Z,1008.68
2019-04-27T08:26:10.074Z,1008.60
2019-04-27T08:27:10.065Z,1008.62
2019-04-27T08:28:10.450Z,1008.58
2019-04-27T08:29:10.043Z,1008.59
2019-04-27T08:30:10.034Z,1008.53
2019-04-27T08:31:10.021Z,1008.55
2019-04-27T08:32:10.013Z,1008.54
2019-04-27T08:33:09.997Z,1008.52
2019-04-27T08:34:09.991Z,1008.58
2019-04-27T08:35:09.978Z,1008.56
2019-04-27T08:36:09.967Z,1008.59
2019-04-27T08:37:09.954Z,1008.55
2019-04-27T08:38:09.949Z,1008.52
2019-04-27T08:39:09.932Z,1008.53
2019-04-27T08:40:09.924Z,1008.52
2019-04-27T08:41:09.913Z,1008.55
2019-04-27T08:42:09.901Z,1008.53
2019-04-27T08:43:09.891Z,1008.54
2019-04-27T08:44:09.880Z,1008.70
2019-04-27T08:45:09.871Z,1008.68
2019-04-27T08:46:09.859Z,1008.58
2019-04-27T08:47:09.848Z,1008.58
2019-04-27T08:48:09.837Z,1008.57
2019-04-27T08:49:10.229Z,1008.54
2019-04-27T08:50:09.816Z,1008.52
2019-04-27T08:51:09.808Z,1008.53
2019-04-27T08:52:09.793Z,1008.58
2019-04-27T08:53:09.981Z,1008.57
2019-04-27T08:54:09.772Z,1008.57
2019-04-27T08:55:09.762Z,1008.52
2019-04-27T08:56:09.758Z,1008.58
2019-04-27T08:57:09.872Z,1008.65
2019-04-27T08:58:10.207Z,1008.64
2019-04-27T08:59:09.723Z,1008.71
2019-04-27T09:00:09.712Z,1008.75
2019-04-27T09:01:10.419Z,1008.57
2019-04-27T09:02:09.726Z,1008.52
2019-04-27T09:03:09.726Z,1008.53
2019-04-27T09:04:11.316Z,1008.59
2019-04-27T09:05:09.753Z,1008.57
2019-04-27T09:06:09.651Z,1008.65
2019-04-27T09:07:09.683Z,1008.58
2019-04-27T09:08:09.622Z,1008.59
2019-04-27T09:09:09.623Z,1008.60
2019-04-27T09:10:09.603Z,1008.61
2019-04-27T09:11:09.589Z,1008.54
2019-04-27T09:12:09.598Z,1008.56
2019-04-27T09:13:09.571Z,1008.62
2019-04-27T09:14:09.557Z,1008.73
2019-04-27T09:15:10.007Z,1008.53
2019-04-27T09:16:11.100Z,1008.53
2019-04-27T09:17:09.718Z,1008.53
2019-04-27T09:18:09.516Z,1008.57
2019-04-27T09:19:09.504Z,1008.53
2019-04-27T09:20:09.608Z,1008.51
2019-04-27T09:21:10.586Z,1008.37
2019-04-27T09:22:16.003Z,1008.33
2019-04-27T09:23:10.460Z,1008.39
2019-04-27T09:24:09.512Z,1008.44
2019-04-27T09:25:09.487Z,1008.53
2019-04-27T09:26:11.114Z,1008.57
2019-04-27T09:27:09.719Z,1008.49
2019-04-27T09:28:09.409Z,1008.48
2019-04-27T09:29:09.396Z,1008.52
2019-04-27T09:30:10.324Z,1008.46
2019-04-27T09:31:09.377Z,1008.47
2019-04-27T09:32:09.366Z,1008.49
2019-04-27T09:33:09.354Z,1008.46
2019-04-27T09:34:10.541Z,1008.49
2019-04-27T09:35:09.333Z,1008.48
2019-04-27T09:36:09.323Z,1008.48
2019-04-27T09:37:09.317Z,1008.49
2019-04-27T09:38:09.301Z,1008.44
2019-04-27T09:39:09.291Z,1008.49
2019-04-27T09:40:09.280Z,1008.49
2019-04-27T09:41:09.270Z,1008.48
2019-04-27T09:42:09.277Z,1008.55
2019-04-27T09:43:09.255Z,1008.53
2019-04-27T09:44:09.257Z,1008.49
2019-04-27T09:45:09.227Z,1008.49
2019-04-27T09:46:09.217Z,1008.50
2019-04-27T09:47:09.207Z,1008.52
2019-04-27T09:48:09.197Z,1008.47
2019-04-27T09:49:12.013Z,1008.46
2019-04-27T09:50:09.172Z,1008.50
2019-04-27T09:51:09.162Z,1008.50
2019-04-27T09:52:09.152Z,1008.47
2019-04-27T09:53:09.144Z,1008.50
2019-04-27T09:54:09.131Z,1008.48
2019-04-27T09:55:09.121Z,1008.47
2019-04-27T09:56:09.113Z,1008.47
2019-04-27T09:57:09.099Z,1008.45
2019-04-27T09:58:09.087Z,1008.47
2019-04-27T09:59:09.077Z,1008.49
2019-04-27T10:00:09.069Z,1008.52
2019-04-27T10:01:09.055Z,1008.46
2019-04-27T10:02:09.046Z,1008.54
2019-04-27T10:03:09.034Z,1008.51
2019-04-27T10:04:09.023Z,1008.45
2019-04-27T10:05:09.014Z,1008.48
2019-04-27T10:06:09.002Z,1008.50
2019-04-27T10:07:09.010Z,1008.51
2019-04-27T10:08:08.982Z,1008.54
2019-04-27T10:09:08.969Z,1008.51
2019-04-27T10:10:08.962Z,1008.49
2019-04-27T10:11:08.951Z,1008.50
2019-04-27T10:12:08.937Z,1008.47
2019-04-27T10:13:08.934Z,1008.40
2019-04-27T10:14:08.924Z,1008.40
2019-04-27T10:15:08.906Z,1008.38
2019-04-27T10:16:08.897Z,1008.40
2019-04-27T10:17:08.888Z,1008.64
2019-04-27T10:18:08.888Z,1008.40
2019-04-27T10:19:08.864Z,1008.40
2019-04-27T10:20:08.854Z,1008.45
2019-04-27T10:21:08.842Z,1008.43
2019-04-27T10:22:08.881Z,1008.44
2019-04-27T10:23:08.822Z,1008.45
2019-04-27T10:24:08.810Z,1008.38
2019-04-27T10:25:08.810Z,1008.40
2019-04-27T10:26:08.790Z,1008.42
2019-04-27T10:27:08.786Z,1008.41
2019-04-27T10:28:08.770Z,1008.37
2019-04-27T10:29:08.758Z,1008.41
2019-04-27T10:30:08.747Z,1008.30
2019-04-27T10:31:08.737Z,1008.34
2019-04-27T10:32:08.729Z,1008.29
2019-04-27T10:33:08.718Z,1008.36
2019-04-27T10:34:08.706Z,1008.41
2019-04-27T10:35:08.697Z,1008.39
2019-04-27T10:36:08.682Z,1008.36
2019-04-27T10:37:08.674Z,1008.37
2019-04-27T10:38:08.661Z,1008.35
2019-04-27T10:39:08.652Z,1008.35
2019-04-27T10:40:08.640Z,1008.43
2019-04-27T10:41:08.631Z,1008.40
2019-04-27T10:42:08.623Z,1008.40
2019-04-27T10:43:08.619Z,1008.33
2019-04-27T10:44:08.600Z,1008.42
2019-04-27T10:45:08.588Z,1008.37
2019-04-27T10:46:08.577Z,1008.28
2019-04-27T10:47:08.568Z,1008.31
2019-04-27T10:48:08.558Z,1008.31
2019-04-27T10:49:08.547Z,1008.30
2019-04-27T10:50:08.536Z,1008.46
2019-04-27T10:51:08.527Z,1008.37
2019-04-27T10:52:08.514Z,1008.42
2019-04-27T10:53:08.507Z,1008.42
2019-04-27T10:54:08.491Z,1008.49
2019-04-27T10:55:08.480Z,1008.42
2019-04-27T10:56:08.475Z,1008.44
2019-04-27T10:57:08.461Z,1008.57
2019-04-27T10:58:08.451Z,1008.49
2019-04-27T10:59:09.750Z,1008.58
2019-04-27T11:00:08.430Z,1008.54
2019-04-27T11:01:08.418Z,1008.57
2019-04-27T11:02:08.409Z,1008.53
2019-04-27T11:03:08.397Z,1008.51
2019-04-27T11:04:08.387Z,1008.47
2019-04-27T11:05:08.379Z,1008.49
2019-04-27T11:06:08.421Z,1008.40
2019-04-27T11:07:08.370Z,1008.41
2019-04-27T11:08:08.346Z,1008.40
2019-04-27T11:09:08.335Z,1008.27
2019-04-27T11:10:08.325Z,1008.28
2019-04-27T11:11:08.314Z,1008.25
2019-04-27T11:12:08.304Z,1008.22
2019-04-27T11:13:08.294Z,1008.26
2019-04-27T11:14:08.295Z,1008.26
2019-04-27T11:15:08.271Z,1008.32
2019-04-27T11:16:08.268Z,1008.29
2019-04-27T11:17:08.249Z,1008.29
2019-04-27T11:18:08.330Z,1008.26
2019-04-27T11:19:08.231Z,1008.30
2019-04-27T11:20:08.227Z,1008.51
2019-04-27T11:21:08.213Z,1008.40
2019-04-27T11:22:08.219Z,1008.26
2019-04-27T11:23:12.122Z,1008.28
2019-04-27T11:24:08.184Z,1008.30
2019-04-27T11:25:08.169Z,1008.27
2019-04-27T11:26:08.161Z,1008.25
2019-04-27T11:27:08.145Z,1008.18
2019-04-27T11:28:08.135Z,1008.19
2019-04-27T11:29:08.123Z,1008.26
2019-04-27T11:30:08.112Z,1008.16
2019-04-27T11:31:08.103Z,1008.19
2019-04-27T11:32:08.093Z,1008.23
2019-04-27T11:33:08.082Z,1008.23
2019-04-27T11:34:08.071Z,1008.19
2019-04-27T11:35:08.063Z,1008.15
2019-04-27T11:36:08.052Z,1008.12
2019-04-27T11:37:08.039Z,1008.18
2019-04-27T11:38:08.029Z,1008.22
2019-04-27T11:39:08.020Z,1008.15
2019-04-27T11:40:08.008Z,1008.20
2019-04-27T11:41:08.001Z,1008.18
2019-04-27T11:42:07.985Z,1008.18
2019-04-27T11:43:07.977Z,1008.37
2019-04-27T11:44:07.965Z,1008.17
2019-04-27T11:45:07.954Z,1008.21
2019-04-27T11:46:07.947Z,1008.45
2019-04-27T11:47:07.972Z,1008.18
2019-04-27T11:48:08.773Z,1008.23
2019-04-27T11:49:07.913Z,1008.09
2019-04-27T11:50:08.319Z,1008.21
2019-04-27T11:51:10.903Z,1008.21
2019-04-27T11:52:07.913Z,1008.05
2019-04-27T11:53:19.763Z,1008.13
2019-04-27T11:54:08.903Z,1008.19
2019-04-27T11:55:07.859Z,1008.21
2019-04-27T11:56:07.890Z,1008.11
2019-04-27T11:57:07.861Z,1008.06
2019-04-27T11:58:07.863Z,1008.25
2019-04-27T11:59:07.871Z,1008.09
2019-04-27T12:00:07.836Z,1008.10
2019-04-27T12:01:08.518Z,1008.16
2019-04-27T12:02:07.815Z,1008.22
2019-04-27T12:03:07.818Z,1008.29
2019-04-27T12:04:07.805Z,1008.14
2019-04-27T12:05:08.050Z,1008.11